createdAt,value
2023-02-22T00:01:21.906Z,44.50
2023-02-22T00:03:52.102Z,35.85
2023-02-22T00:06:21.041Z,38.97
2023-02-22T00:08:52.555Z,36.23
2023-02-22T00:11:20.490Z,36.00
2023-02-22T00:13:50.391Z,33.80
2023-02-22T00:16:20.138Z,38.30
2023-02-22T00:18:47.297Z,39.42
2023-02-22T00:21:16.600Z,37.10
2023-02-22T00:23:48.968Z,34.22
2023-02-22T00:26:19.659Z,34.30
2023-02-22T00:28:52.166Z,34.00
2023-02-22T00:31:20.308Z,34.97
2023-02-22T00:33:48.392Z,33.00
2023-02-22T00:36:15.113Z,32.38
2023-02-22T00:38:42.076Z,31.38
2023-02-22T00:41:09.667Z,32.28
2023-02-22T00:43:36.418Z,34.88
2023-02-22T00:46:03.618Z,33.43
2023-02-22T00:48:30.170Z,31.75
2023-02-22T00:50:56.725Z,31.30
2023-02-22T00:53:25.039Z,39.28
2023-02-22T00:55:52.072Z,36.92
2023-02-22T00:58:18.760Z,32.13
2023-02-22T01:00:46.148Z,36.75
2023-02-22T01:03:18.414Z,46.05
2023-02-22T01:05:45.264Z,36.45
2023-02-22T01:08:13.865Z,35.40
2023-02-22T01:10:40.618Z,39.23
2023-02-22T01:13:12.322Z,36.42
2023-02-22T01:15:42.703Z,35.33
2023-02-22T01:18:09.764Z,38.88
2023-02-22T01:20:36.576Z,40.75
2023-02-22T01:23:06.500Z,41.53
2023-02-22T01:25:33.693Z,39.90
2023-02-22T01:28:01.867Z,41.47
2023-02-22T01:30:32.931Z,45.28
2023-02-22T01:33:00.905Z,49.13
2023-02-22T01:35:30.907Z,49.53
2023-02-22T01:37:58.335Z,43.28
2023-02-22T01:40:39.197Z,52.05
2023-02-22T01:43:15.925Z,44.30
2023-02-22T01:45:55.358Z,51.47
2023-02-22T01:48:45.204Z,63.30
2023-02-22T01:51:19.493Z,62.88
2023-02-22T01:53:54.494Z,61.00
2023-02-22T01:56:23.257Z,70.30
2023-02-22T01:58:55.035Z,69.05
2023-02-22T02:01:23.773Z,75.10
2023-02-22T02:03:51.902Z,77.68
2023-02-22T02:06:19.352Z,72.50
2023-02-22T02:08:55.720Z,80.95
2023-02-22T02:11:25.578Z,75.68
2023-02-22T02:13:57.364Z,83.67
2023-02-22T02:16:27.704Z,81.63
2023-02-22T02:18:54.521Z,70.88
2023-02-22T02:21:39.042Z,82.65
2023-02-22T02:24:28.447Z,98.85
2023-02-22T02:27:09.175Z,83.00
2023-02-22T02:29:57.437Z,72.68
2023-02-22T02:33:19.666Z,82.55
2023-02-22T02:36:18.885Z,97.65
2023-02-22T02:38:54.759Z,88.23
2023-02-22T02:41:27.653Z,91.65
2023-02-22T02:44:00.439Z,84.18
2023-02-22T02:46:34.879Z,88.15
2023-02-22T02:49:07.131Z,88.97
2023-02-22T02:51:38.717Z,86.82
2023-02-22T02:54:07.453Z,87.95
2023-02-22T02:56:34.317Z,85.43
2023-02-22T02:59:00.841Z,82.78
2023-02-22T03:01:52.427Z,95.03
2023-02-22T03:05:07.384Z,98.07
2023-02-22T03:07:49.251Z,87.35
2023-02-22T03:10:25.461Z,88.47
2023-02-22T03:13:10.015Z,92.55
2023-02-22T03:16:06.011Z,90.73
2023-02-22T03:19:04.651Z,88.22
2023-02-22T03:21:36.383Z,92.78
2023-02-22T03:24:25.516Z,102.35
2023-02-22T03:26:58.757Z,94.15
2023-02-22T03:29:30.247Z,91.17
2023-02-22T03:32:01.460Z,92.75
2023-02-22T03:34:37.973Z,97.57
2023-02-22T03:37:14.428Z,103.70
2023-02-22T03:39:44.392Z,99.30
2023-02-22T03:42:22.572Z,103.43
2023-02-22T03:44:52.331Z,97.32
2023-02-22T03:47:30.486Z,98.65
2023-02-22T03:50:09.499Z,97.22
2023-02-22T03:52:37.700Z,89.45
2023-02-22T03:55:11.813Z,97.20
2023-02-22T03:57:42.983Z,92.07
2023-02-22T04:00:14.448Z,87.75
2023-02-22T04:02:41.984Z,86.32
2023-02-22T04:05:14.211Z,84.18
2023-02-22T04:07:42.148Z,81.37
2023-02-22T04:10:12.064Z,78.75
2023-02-22T04:12:38.661Z,73.95
2023-02-22T04:15:07.921Z,80.78
2023-02-22T04:17:35.072Z,77.30
2023-02-22T04:20:03.862Z,79.53
2023-02-22T04:22:41.526Z,79.80
2023-02-22T04:25:08.414Z,83.00
2023-02-22T04:27:35.265Z,77.43
2023-02-22T04:30:01.960Z,77.70
2023-02-22T04:32:30.791Z,78.97
2023-02-22T04:34:58.678Z,73.70
2023-02-22T04:37:26.203Z,79.45
2023-02-22T04:39:53.949Z,72.22
2023-02-22T04:42:20.791Z,66.63
2023-02-22T04:44:47.254Z,72.47
2023-02-22T04:47:14.766Z,73.50
2023-02-22T04:49:41.282Z,67.05
2023-02-22T04:52:07.890Z,66.22
2023-02-22T04:54:37.652Z,71.07
2023-02-22T04:57:04.250Z,73.80
2023-02-22T04:59:33.748Z,79.70
2023-02-22T05:02:01.561Z,69.22
2023-02-22T05:04:28.114Z,77.03
2023-02-22T05:06:55.145Z,79.25
2023-02-22T05:09:21.846Z,70.13
2023-02-22T05:11:48.312Z,72.25
2023-02-22T05:14:14.919Z,77.97
2023-02-22T05:16:41.506Z,83.15
2023-02-22T05:19:10.333Z,79.68
2023-02-22T05:21:36.777Z,78.97
2023-02-22T05:24:03.324Z,87.50
2023-02-22T05:26:29.838Z,81.30
2023-02-22T05:28:56.344Z,76.88
2023-02-22T05:31:22.910Z,95.97
2023-02-22T05:33:49.523Z,82.00
2023-02-22T05:36:16.763Z,89.28
2023-02-22T05:38:44.710Z,90.80
2023-02-22T05:41:12.689Z,88.22
2023-02-22T05:43:40.459Z,81.15
2023-02-22T05:46:07.544Z,92.47
2023-02-22T05:48:34.405Z,84.55
2023-02-22T05:51:00.950Z,89.90
2023-02-22T05:53:27.736Z,85.47
2023-02-22T05:55:54.556Z,91.85
2023-02-22T05:58:21.443Z,98.83
2023-02-22T06:00:48.018Z,94.32
2023-02-22T06:03:14.794Z,90.15
2023-02-22T06:05:42.150Z,103.75
2023-02-22T06:08:08.857Z,96.97
2023-02-22T06:10:35.440Z,107.67
2023-02-22T06:13:03.149Z,116.40
2023-02-22T06:15:30.382Z,100.18
2023-02-22T06:17:58.679Z,114.40
2023-02-22T06:20:27.258Z,108.60
2023-02-22T06:22:55.875Z,86.03
2023-02-22T06:25:24.950Z,100.57
2023-02-22T06:27:51.952Z,106.50
2023-02-22T06:30:20.605Z,111.15
2023-02-22T06:32:47.176Z,98.68
2023-02-22T06:35:15.134Z,92.33
2023-02-22T06:37:41.626Z,98.75
2023-02-22T06:40:08.966Z,97.32
2023-02-22T06:42:35.477Z,99.72
2023-02-22T06:45:02.057Z,102.63
2023-02-22T06:47:28.660Z,100.40
2023-02-22T06:49:59.466Z,110.18
2023-02-22T06:52:26.210Z,121.50
2023-02-22T06:54:52.877Z,127.40
2023-02-22T06:57:19.457Z,120.70
2023-02-22T06:59:46.401Z,130.70
2023-02-22T07:02:13.573Z,125.07
2023-02-22T07:04:43.186Z,132.82
2023-02-22T07:07:10.222Z,126.70
2023-02-22T07:09:36.754Z,115.82
2023-02-22T07:12:03.574Z,109.80
2023-02-22T07:14:30.105Z,110.30
2023-02-22T07:16:56.577Z,107.22
2023-02-22T07:19:24.636Z,126.70
2023-02-22T07:21:55.268Z,116.97
2023-02-22T07:24:21.989Z,110.60
2023-02-22T07:26:48.658Z,113.07
2023-02-22T07:29:15.191Z,119.10
2023-02-22T07:31:41.758Z,108.18
2023-02-22T07:34:08.303Z,128.70
2023-02-22T07:36:34.896Z,115.50
2023-02-22T07:39:01.445Z,115.45
2023-02-22T07:41:28.116Z,116.88
2023-02-22T07:43:54.688Z,110.80
2023-02-22T07:46:21.231Z,130.20
2023-02-22T07:48:47.818Z,130.17
2023-02-22T07:51:20.757Z,121.47
2023-02-22T07:53:48.724Z,119.68
2023-02-22T07:56:15.933Z,151.68
2023-02-22T07:58:42.443Z,147.27
2023-02-22T08:01:08.938Z,138.27
2023-02-22T08:03:36.746Z,170.57
2023-02-22T08:06:05.673Z,193.27
2023-02-22T08:08:32.255Z,232.68
2023-02-22T08:10:58.799Z,152.88
2023-02-22T08:13:25.328Z,177.10
2023-02-22T08:15:53.722Z,163.38
2023-02-22T08:18:21.056Z,158.85
2023-02-22T08:20:49.702Z,165.02
2023-02-22T08:23:17.670Z,137.32
2023-02-22T08:25:44.518Z,162.37
2023-02-22T08:28:13.763Z,151.65
2023-02-22T08:30:42.827Z,169.68
2023-02-22T08:33:14.275Z,149.45
2023-02-22T08:35:41.313Z,134.57
2023-02-22T08:38:15.547Z,145.37
2023-02-22T08:40:42.064Z,152.05
2023-02-22T08:43:08.632Z,135.07
2023-02-22T08:45:35.191Z,188.55
2023-02-22T08:48:01.796Z,137.95
2023-02-22T08:50:30.565Z,136.37
2023-02-22T08:52:59.369Z,146.52
2023-02-22T08:55:28.709Z,168.73
2023-02-22T08:57:55.223Z,182.70
2023-02-22T09:00:25.506Z,183.02
2023-02-22T09:02:52.807Z,194.23
2023-02-22T09:05:19.766Z,212.82
2023-02-22T09:07:46.325Z,192.57
2023-02-22T09:10:18.296Z,202.40
2023-02-22T09:12:44.789Z,179.20
2023-02-22T09:15:15.005Z,183.90
2023-02-22T09:17:41.572Z,217.55
2023-02-22T09:20:11.102Z,179.73
2023-02-22T09:22:37.945Z,167.23
2023-02-22T09:25:16.243Z,192.52
2023-02-22T09:27:44.280Z,189.03
2023-02-22T09:30:23.806Z,168.68
2023-02-22T09:32:56.375Z,166.18
2023-02-22T09:35:27.038Z,140.23
2023-02-22T09:37:55.347Z,135.30
2023-02-22T09:40:29.546Z,142.30
2023-02-22T09:43:11.385Z,132.98
2023-02-22T09:45:51.936Z,141.98
2023-02-22T09:48:22.430Z,139.23
2023-02-22T09:50:52.829Z,127.47
2023-02-22T09:53:29.771Z,127.53
2023-02-22T09:56:00.538Z,111.03
2023-02-22T09:58:41.460Z,134.32
2023-02-22T10:01:23.155Z,123.88
2023-02-22T10:03:56.976Z,102.35
2023-02-22T10:06:24.841Z,107.10
2023-02-22T10:08:58.960Z,97.85
2023-02-22T10:11:55.510Z,90.72
2023-02-22T10:14:37.382Z,95.88
2023-02-22T10:17:22.597Z,91.80
2023-02-22T10:20:20.921Z,99.10
2023-02-22T10:22:52.361Z,90.95
2023-02-22T10:25:22.412Z,89.68
2023-02-22T10:28:00.196Z,90.65
2023-02-22T10:30:34.482Z,92.07
2023-02-22T10:33:21.882Z,91.93
2023-02-22T10:35:48.959Z,75.28
2023-02-22T10:38:24.313Z,72.68
2023-02-22T10:40:56.752Z,84.10
2023-02-22T10:43:23.720Z,79.25
2023-02-22T10:45:55.822Z,74.67
2023-02-22T10:48:26.332Z,80.70
2023-02-22T10:50:58.425Z,63.28
2023-02-22T10:53:26.989Z,73.53
2023-02-22T10:56:07.764Z,65.80
2023-02-22T10:59:06.035Z,65.50
2023-02-22T11:01:32.641Z,69.03
2023-02-22T11:04:00.888Z,62.53
2023-02-22T11:06:27.812Z,72.60
2023-02-22T11:09:13.770Z,66.63
2023-02-22T11:11:45.988Z,63.83
2023-02-22T11:14:24.380Z,62.72
2023-02-22T11:16:53.800Z,66.50
2023-02-22T11:19:31.866Z,58.05
2023-02-22T11:22:07.886Z,59.88
2023-02-22T11:24:47.456Z,59.10
2023-02-22T11:27:26.014Z,57.95
2023-02-22T11:29:52.809Z,59.50
2023-02-22T11:32:22.425Z,56.20
2023-02-22T11:35:00.302Z,53.40
2023-02-22T11:37:36.814Z,61.17
2023-02-22T11:40:12.020Z,55.33
2023-02-22T11:42:38.606Z,53.58
2023-02-22T11:45:27.490Z,47.45
2023-02-22T11:47:58.978Z,51.78
2023-02-22T11:50:37.748Z,51.70
2023-02-22T11:53:26.225Z,47.83
2023-02-22T11:56:04.787Z,53.50
2023-02-22T11:59:08.017Z,51.67
2023-02-22T12:01:51.407Z,55.78
2023-02-22T12:04:30.814Z,48.17
2023-02-22T12:07:22.057Z,48.83
2023-02-22T12:10:06.780Z,48.70
2023-02-22T12:13:01.748Z,43.75
2023-02-22T12:15:52.239Z,49.10
2023-02-22T12:18:30.114Z,40.77
2023-02-22T12:21:09.110Z,40.03
2023-02-22T12:23:53.333Z,45.13
2023-02-22T12:26:55.361Z,38.97
2023-02-22T12:29:41.225Z,37.53
2023-02-22T12:32:14.236Z,39.83
2023-02-22T12:34:48.735Z,38.53
2023-02-22T12:37:23.632Z,46.55
2023-02-22T12:40:13.404Z,41.13
2023-02-22T12:42:50.207Z,41.28
2023-02-22T12:45:29.761Z,38.37
2023-02-22T12:48:21.522Z,36.70
2023-02-22T12:50:58.708Z,40.67
2023-02-22T12:53:38.251Z,40.38
2023-02-22T12:56:20.054Z,38.38
2023-02-22T12:58:55.729Z,36.53
2023-02-22T13:01:27.522Z,43.65
2023-02-22T13:03:55.820Z,41.95
2023-02-22T13:06:30.618Z,38.88
2023-02-22T13:09:15.840Z,36.25
2023-02-22T13:11:42.245Z,39.07
2023-02-22T13:14:41.477Z,36.53
2023-02-22T13:17:27.142Z,36.90
2023-02-22T13:20:18.398Z,36.80
2023-02-22T13:22:55.301Z,36.20
2023-02-22T13:25:57.516Z,39.47
2023-02-22T13:28:36.049Z,35.05
2023-02-22T13:31:19.045Z,37.88
2023-02-22T13:34:09.117Z,35.65
2023-02-22T13:37:17.608Z,35.67
2023-02-22T13:40:03.268Z,35.43
2023-02-22T13:43:00.794Z,39.55
2023-02-22T13:45:46.425Z,38.33
2023-02-22T13:48:15.904Z,38.28
2023-02-22T13:51:08.829Z,40.45
2023-02-22T13:53:58.201Z,39.30
2023-02-22T13:56:26.144Z,37.60
2023-02-22T13:58:55.663Z,39.58
2023-02-22T14:01:45.708Z,42.42
2023-02-22T14:04:27.116Z,43.15
2023-02-22T14:06:55.187Z,46.60
2023-02-22T14:09:45.436Z,42.85
2023-02-22T14:12:33.592Z,44.55
2023-02-22T14:15:31.208Z,41.42
2023-02-22T14:18:01.095Z,41.17
2023-02-22T14:20:32.485Z,39.00
2023-02-22T14:23:28.898Z,38.28
2023-02-22T14:25:57.026Z,43.63
2023-02-22T14:28:40.365Z,39.33
2023-02-22T14:31:08.446Z,44.55
2023-02-22T14:33:56.939Z,37.93
2023-02-22T14:36:31.876Z,40.20
2023-02-22T14:39:06.699Z,38.55
2023-02-22T14:41:35.700Z,43.17
2023-02-22T14:44:04.298Z,39.97
2023-02-22T14:46:35.428Z,36.07
2023-02-22T14:49:05.454Z,36.25
2023-02-22T14:51:41.995Z,36.97
2023-02-22T14:54:21.144Z,38.90
2023-02-22T14:57:14.757Z,32.65
2023-02-22T14:59:52.392Z,36.57
2023-02-22T15:02:20.534Z,36.22
2023-02-22T15:04:55.041Z,37.65
2023-02-22T15:07:27.660Z,37.22
2023-02-22T15:10:23.938Z,34.30
2023-02-22T15:13:09.371Z,32.40
2023-02-22T15:15:48.837Z,37.35
2023-02-22T15:18:23.116Z,32.35
2023-02-22T15:20:57.500Z,38.63
2023-02-22T15:23:30.351Z,34.75
2023-02-22T15:25:57.654Z,33.60
2023-02-22T15:28:28.867Z,34.17
2023-02-22T15:31:25.485Z,34.38
2023-02-22T15:33:55.869Z,37.97
2023-02-22T15:36:32.358Z,41.15
2023-02-22T15:38:58.908Z,34.07
2023-02-22T15:41:31.631Z,33.03
2023-02-22T15:44:14.133Z,35.40
2023-02-22T15:46:48.018Z,33.45
2023-02-22T15:49:14.717Z,37.35
2023-02-22T15:51:46.316Z,35.60
2023-02-22T15:54:26.521Z,32.78
2023-02-22T15:56:56.582Z,34.72
2023-02-22T15:59:30.285Z,37.65
2023-02-22T16:01:59.242Z,35.65
2023-02-22T16:04:28.919Z,31.47
2023-02-22T16:07:16.924Z,34.38
2023-02-22T16:09:51.291Z,36.55
2023-02-22T16:12:25.994Z,36.80
2023-02-22T16:14:52.694Z,33.47
2023-02-22T16:17:25.597Z,34.67
2023-02-22T16:19:53.232Z,35.55
2023-02-22T16:22:34.602Z,29.30
2023-02-22T16:25:19.543Z,33.95
2023-02-22T16:27:57.939Z,34.13
2023-02-22T16:30:28.551Z,34.10
2023-02-22T16:32:57.414Z,31.45
2023-02-22T16:35:29.507Z,37.90
2023-02-22T16:38:04.980Z,35.75
2023-02-22T16:40:38.334Z,36.65
2023-02-22T16:43:12.238Z,37.33
2023-02-22T16:45:41.284Z,38.78
2023-02-22T16:48:38.185Z,35.40
2023-02-22T16:51:24.515Z,35.13
2023-02-22T16:53:53.801Z,36.55
2023-02-22T16:56:23.449Z,38.27
2023-02-22T16:58:51.084Z,40.50
2023-02-22T17:01:17.989Z,37.40
2023-02-22T17:03:45.042Z,37.88
2023-02-22T17:06:12.516Z,35.47
2023-02-22T17:08:40.552Z,39.40
2023-02-22T17:11:08.480Z,38.20
2023-02-22T17:13:35.547Z,38.63
2023-02-22T17:16:02.326Z,35.13
2023-02-22T17:18:33.867Z,39.92
2023-02-22T17:21:02.532Z,35.70
2023-02-22T17:23:29.168Z,35.42
2023-02-22T17:25:59.203Z,31.58
2023-02-22T17:28:26.421Z,34.70
2023-02-22T17:30:54.418Z,38.20
2023-02-22T17:33:26.762Z,42.53
2023-02-22T17:35:55.085Z,38.72
2023-02-22T17:38:22.860Z,38.70
2023-02-22T17:40:54.716Z,35.40
2023-02-22T17:43:22.134Z,38.20
2023-02-22T17:45:49.169Z,40.57
2023-02-22T17:48:17.623Z,38.53
2023-02-22T17:50:46.602Z,40.10
2023-02-22T17:53:13.710Z,35.70
2023-02-22T17:55:41.712Z,34.85
2023-02-22T17:58:14.693Z,39.80
2023-02-22T18:00:44.422Z,38.45
2023-02-22T18:03:15.476Z,33.38
2023-02-22T18:05:48.206Z,39.42
2023-02-22T18:08:15.512Z,34.63
2023-02-22T18:10:44.010Z,34.60
2023-02-22T18:13:18.773Z,35.05
2023-02-22T18:15:46.895Z,34.83
2023-02-22T18:18:17.966Z,34.33
2023-02-22T18:20:51.691Z,34.63
2023-02-22T18:23:22.220Z,32.33
2023-02-22T18:26:09.219Z,36.20
2023-02-22T18:28:37.206Z,37.53
2023-02-22T18:31:09.275Z,37.63
2023-02-22T18:33:36.032Z,36.83
2023-02-22T18:36:05.513Z,32.27
2023-02-22T18:38:32.138Z,37.28
2023-02-22T18:41:04.650Z,37.33
2023-02-22T18:43:35.633Z,30.58
2023-02-22T18:46:16.481Z,35.97
2023-02-22T18:48:44.476Z,33.40
2023-02-22T18:51:13.895Z,36.42
2023-02-22T18:53:46.935Z,34.40
2023-02-22T18:56:17.862Z,35.00
2023-02-22T18:58:45.062Z,34.42
2023-02-22T19:01:18.096Z,36.00
2023-02-22T19:03:47.295Z,35.85
2023-02-22T19:06:14.992Z,38.70
2023-02-22T19:08:42.968Z,37.30
2023-02-22T19:11:31.272Z,37.67
2023-02-22T19:13:58.045Z,38.43
2023-02-22T19:16:26.544Z,42.10
2023-02-22T19:18:57.086Z,36.97
2023-02-22T19:21:26.339Z,43.10
2023-02-22T19:24:00.094Z,42.85
2023-02-22T19:26:27.624Z,39.67
2023-02-22T19:28:56.853Z,43.65
2023-02-22T19:31:33.640Z,41.05
2023-02-22T19:34:06.165Z,41.78
2023-02-22T19:36:32.889Z,36.25
2023-02-22T19:39:02.065Z,43.47
2023-02-22T19:41:29.465Z,41.70
2023-02-22T19:43:56.230Z,46.45
2023-02-22T19:46:24.791Z,41.50
2023-02-22T19:48:53.124Z,41.00
2023-02-22T19:51:21.266Z,45.47
2023-02-22T19:53:47.978Z,44.08
2023-02-22T19:56:17.035Z,41.80
2023-02-22T19:58:46.318Z,44.03
2023-02-22T20:01:25.376Z,46.90
2023-02-22T20:03:59.824Z,46.97
2023-02-22T20:06:31.581Z,47.67
2023-02-22T20:08:58.149Z,47.72
2023-02-22T20:11:24.919Z,47.38
2023-02-22T20:13:51.549Z,48.70
2023-02-22T20:16:18.443Z,47.93
2023-02-22T20:18:46.837Z,49.08
2023-02-22T20:21:20.623Z,50.08
2023-02-22T20:23:47.680Z,51.25
2023-02-22T20:26:18.167Z,49.92
2023-02-22T20:28:45.510Z,51.13
2023-02-22T20:31:13.801Z,47.10
2023-02-22T20:33:42.112Z,53.22
2023-02-22T20:36:10.433Z,53.63
2023-02-22T20:38:37.965Z,51.95
2023-02-22T20:41:09.957Z,55.03
2023-02-22T20:43:36.484Z,57.63
2023-02-22T20:46:05.214Z,52.65
2023-02-22T20:48:32.838Z,57.65
2023-02-22T20:51:07.072Z,60.60
2023-02-22T20:53:34.514Z,63.93
2023-02-22T20:56:01.946Z,64.05
2023-02-22T20:58:29.182Z,56.00
2023-02-22T21:00:55.752Z,61.80
2023-02-22T21:03:22.278Z,59.78
2023-02-22T21:05:48.992Z,59.90
2023-02-22T21:08:15.651Z,64.85
2023-02-22T21:10:47.114Z,53.03
2023-02-22T21:13:14.265Z,65.75
2023-02-22T21:15:43.619Z,62.22
2023-02-22T21:18:10.732Z,64.73
2023-02-22T21:20:40.250Z,63.88
2023-02-22T21:23:07.048Z,65.55
2023-02-22T21:25:34.136Z,65.85
2023-02-22T21:28:01.029Z,67.60
2023-02-22T21:30:27.890Z,68.07
2023-02-22T21:32:55.415Z,64.65
2023-02-22T21:35:23.267Z,64.63
2023-02-22T21:37:50.909Z,72.72
2023-02-22T21:40:20.241Z,72.57
2023-02-22T21:42:50.304Z,65.03
2023-02-22T21:45:21.317Z,68.82
2023-02-22T21:47:49.067Z,66.15
2023-02-22T21:50:17.431Z,68.70
2023-02-22T21:52:44.760Z,66.38
2023-02-22T21:55:11.842Z,68.97
2023-02-22T21:57:38.357Z,67.20
2023-02-22T22:00:17.590Z,71.22
2023-02-22T22:02:48.055Z,73.63
2023-02-22T22:05:31.550Z,77.28
2023-02-22T22:07:58.345Z,72.87
2023-02-22T22:10:27.808Z,75.25
2023-02-22T22:12:54.480Z,82.60
2023-02-22T22:15:21.167Z,74.80
2023-02-22T22:17:47.681Z,72.75
2023-02-22T22:20:16.998Z,74.27
2023-02-22T22:22:46.000Z,74.18
2023-02-22T22:25:17.076Z,76.88
2023-02-22T22:27:46.082Z,71.30
2023-02-22T22:30:13.199Z,72.38
2023-02-22T22:32:40.190Z,65.97
2023-02-22T22:35:14.415Z,81.15
2023-02-22T22:37:42.629Z,78.15
2023-02-22T22:40:15.669Z,68.50
2023-02-22T22:42:42.729Z,73.03
2023-02-22T22:45:17.187Z,77.70
2023-02-22T22:47:45.948Z,64.18
2023-02-22T22:50:14.074Z,80.85
2023-02-22T22:52:41.030Z,76.25
2023-02-22T22:55:11.977Z,77.65
2023-02-22T22:57:39.608Z,74.70
2023-02-22T23:00:26.719Z,79.93
2023-02-22T23:02:56.283Z,80.95
2023-02-22T23:05:28.122Z,76.82
2023-02-22T23:07:56.625Z,73.93
2023-02-22T23:10:29.307Z,79.73
2023-02-22T23:12:56.476Z,67.65
2023-02-22T23:15:24.609Z,71.78
2023-02-22T23:17:56.005Z,79.53
2023-02-22T23:20:26.248Z,75.47
2023-02-22T23:22:54.001Z,81.60
2023-02-22T23:25:21.756Z,82.38
2023-02-22T23:27:49.388Z,81.68
2023-02-22T23:30:18.637Z,83.65
2023-02-22T23:32:49.024Z,85.72
2023-02-22T23:35:16.384Z,87.93
2023-02-22T23:37:42.941Z,84.75
2023-02-22T23:40:16.887Z,75.13
2023-02-22T23:42:48.968Z,79.40
2023-02-22T23:45:22.929Z,84.22
2023-02-22T23:47:54.793Z,72.50
2023-02-22T23:50:27.541Z,75.88
2023-02-22T23:52:58.170Z,82.32
2023-02-22T23:55:27.386Z,82.35
2023-02-22T23:57:59.435Z,76.30
